createdAt,value
2022-11-21T00:00:03.926Z,22.95
2022-11-21T00:02:28.036Z,23.10
2022-11-21T00:04:51.314Z,24.20
2022-11-21T00:07:14.577Z,24.00
2022-11-21T00:09:37.873Z,23.67
2022-11-21T00:12:01.107Z,22.90
2022-11-21T00:14:24.747Z,27.40
2022-11-21T00:16:52.141Z,25.33
2022-11-21T00:19:19.527Z,26.15
2022-11-21T00:21:42.888Z,27.15
2022-11-21T00:24:07.508Z,27.67
2022-11-21T00:26:30.804Z,26.27
2022-11-21T00:28:54.018Z,28.77
2022-11-21T00:31:22.700Z,29.70
2022-11-21T00:33:47.436Z,34.28
2022-11-21T00:36:11.463Z,32.55
2022-11-21T00:38:34.798Z,33.28
2022-11-21T00:40:58.056Z,29.87
2022-11-21T00:43:21.338Z,30.20
2022-11-21T00:45:44.601Z,31.60
2022-11-21T00:48:08.454Z,34.30
2022-11-21T00:50:33.173Z,28.15
2022-11-21T00:52:57.229Z,29.70
2022-11-21T00:55:20.528Z,28.67
2022-11-21T00:57:43.913Z,29.88
2022-11-21T01:00:09.148Z,31.23
2022-11-21T01:02:33.967Z,29.60
2022-11-21T01:04:57.259Z,29.08
2022-11-21T01:07:22.030Z,29.70
2022-11-21T01:09:45.322Z,29.27
2022-11-21T01:12:08.669Z,31.63
2022-11-21T01:14:32.036Z,31.97
2022-11-21T01:16:55.321Z,33.07
2022-11-21T01:19:18.659Z,33.83
2022-11-21T01:21:41.945Z,27.75
2022-11-21T01:24:07.175Z,28.13
2022-11-21T01:26:32.988Z,30.25
2022-11-21T01:28:56.886Z,30.50
2022-11-21T01:31:22.411Z,31.40
2022-11-21T01:33:46.326Z,31.83
2022-11-21T01:36:12.480Z,28.90
2022-11-21T01:38:35.944Z,31.23
2022-11-21T01:41:00.606Z,31.13
2022-11-21T01:43:23.856Z,31.97
2022-11-21T01:45:56.634Z,35.03
2022-11-21T01:48:20.602Z,34.83
2022-11-21T01:50:44.064Z,32.00
2022-11-21T01:53:07.465Z,35.47
2022-11-21T01:55:30.821Z,34.10
2022-11-21T01:57:55.611Z,35.07
2022-11-21T02:00:24.133Z,29.93
2022-11-21T02:02:55.294Z,30.83
2022-11-21T02:05:23.493Z,32.53
2022-11-21T02:07:49.582Z,33.50
2022-11-21T02:10:14.495Z,32.50
2022-11-21T02:12:47.202Z,33.97
2022-11-21T02:15:13.541Z,35.33
2022-11-21T02:17:37.000Z,32.27
2022-11-21T02:20:02.499Z,31.67
2022-11-21T02:22:37.080Z,34.90
2022-11-21T02:25:08.420Z,33.63
2022-11-21T02:27:31.959Z,34.93
2022-11-21T02:29:55.512Z,30.97
2022-11-21T02:32:23.380Z,34.47
2022-11-21T02:34:46.687Z,32.27
2022-11-21T02:37:10.864Z,35.13
2022-11-21T02:39:37.724Z,36.37
2022-11-21T02:42:09.978Z,37.77
2022-11-21T02:44:42.024Z,33.33
2022-11-21T02:47:05.954Z,33.03
2022-11-21T02:49:39.390Z,37.53
2022-11-21T02:52:02.628Z,38.23
2022-11-21T02:54:26.069Z,36.57
2022-11-21T02:56:49.693Z,38.20
2022-11-21T02:59:14.270Z,38.37
2022-11-21T03:01:37.571Z,38.47
2022-11-21T03:04:00.771Z,37.77
2022-11-21T03:06:24.004Z,36.30
2022-11-21T03:08:47.309Z,38.00
2022-11-21T03:11:10.648Z,39.67
2022-11-21T03:13:33.877Z,39.17
2022-11-21T03:16:00.412Z,37.17
2022-11-21T03:18:23.724Z,39.07
2022-11-21T03:20:47.109Z,38.20
2022-11-21T03:23:10.501Z,35.93
2022-11-21T03:25:33.776Z,35.73
2022-11-21T03:27:57.082Z,34.23
2022-11-21T03:30:21.055Z,33.73
2022-11-21T03:32:45.687Z,36.43
2022-11-21T03:35:09.611Z,38.00
2022-11-21T03:37:33.048Z,36.90
2022-11-21T03:39:56.341Z,37.03
2022-11-21T03:42:19.583Z,36.23
2022-11-21T03:44:43.367Z,39.80
2022-11-21T03:47:06.617Z,37.63
2022-11-21T03:49:31.285Z,37.10
2022-11-21T03:51:54.552Z,38.60
2022-11-21T03:54:17.942Z,36.67
2022-11-21T03:56:41.224Z,37.87
2022-11-21T03:59:04.948Z,35.83
2022-11-21T04:01:32.447Z,35.03
2022-11-21T04:03:59.914Z,36.83
2022-11-21T04:06:24.737Z,32.67
2022-11-21T04:08:48.406Z,32.50
2022-11-21T04:11:12.058Z,34.50
2022-11-21T04:13:35.683Z,33.13
2022-11-21T04:15:59.036Z,36.57
2022-11-21T04:18:22.627Z,34.70
2022-11-21T04:20:46.159Z,34.43
2022-11-21T04:23:34.465Z,37.43
2022-11-21T04:26:04.013Z,36.40
2022-11-21T04:28:27.407Z,35.03
2022-11-21T04:30:54.761Z,31.90
2022-11-21T04:33:19.287Z,35.37
2022-11-21T04:35:44.334Z,34.10
2022-11-21T04:38:07.934Z,34.57
2022-11-21T04:40:32.566Z,31.30
2022-11-21T04:42:55.891Z,30.43
2022-11-21T04:45:19.177Z,32.43
2022-11-21T04:47:45.617Z,32.73
2022-11-21T04:50:10.611Z,31.50
2022-11-21T04:52:34.476Z,32.57
2022-11-21T04:54:57.886Z,33.90
2022-11-21T04:57:22.701Z,31.60
2022-11-21T04:59:46.120Z,29.97
2022-11-21T05:02:09.359Z,36.57
2022-11-21T05:04:32.628Z,39.10
2022-11-21T05:06:55.806Z,32.57
2022-11-21T05:09:19.003Z,31.57
2022-11-21T05:11:59.571Z,30.40
2022-11-21T05:14:26.306Z,31.43
2022-11-21T05:16:49.744Z,31.33
2022-11-21T05:19:13.249Z,32.73
2022-11-21T05:21:36.470Z,33.87
2022-11-21T05:23:59.873Z,32.53
2022-11-21T05:26:23.222Z,39.97
2022-11-21T05:28:47.662Z,33.43
2022-11-21T05:31:12.274Z,31.67
2022-11-21T05:33:35.660Z,37.07
2022-11-21T05:35:58.953Z,39.67
2022-11-21T05:38:22.258Z,40.67
2022-11-21T05:40:45.468Z,49.10
2022-11-21T05:43:26.499Z,48.43
2022-11-21T05:45:51.089Z,36.17
2022-11-21T05:48:15.851Z,35.30
2022-11-21T05:50:39.128Z,33.97
2022-11-21T05:53:04.536Z,33.03
2022-11-21T05:55:27.837Z,33.03
2022-11-21T05:57:51.105Z,45.00
2022-11-21T06:00:16.383Z,37.83
2022-11-21T06:02:56.963Z,37.97
2022-11-21T06:05:21.898Z,37.93
2022-11-21T06:07:45.168Z,36.53
2022-11-21T06:10:09.346Z,35.20
2022-11-21T06:12:33.215Z,32.77
2022-11-21T06:14:56.531Z,31.13
2022-11-21T06:17:19.800Z,40.13
2022-11-21T06:19:43.044Z,34.77
2022-11-21T06:22:07.689Z,33.03
2022-11-21T06:24:31.072Z,36.07
2022-11-21T06:26:54.326Z,36.07
2022-11-21T06:29:17.860Z,34.43
2022-11-21T06:31:41.240Z,32.60
2022-11-21T06:34:04.500Z,33.17
2022-11-21T06:36:28.377Z,35.20
2022-11-21T06:38:55.740Z,34.63
2022-11-21T06:41:21.160Z,31.30
2022-11-21T06:43:45.049Z,32.50
2022-11-21T06:46:08.854Z,34.33
2022-11-21T06:48:32.250Z,33.43
2022-11-21T06:50:55.687Z,36.87
2022-11-21T06:53:19.516Z,33.27
2022-11-21T06:55:44.571Z,32.97
2022-11-21T06:58:07.893Z,38.60
2022-11-21T07:00:31.349Z,33.73
2022-11-21T07:02:58.721Z,34.33
2022-11-21T07:05:24.919Z,38.40
2022-11-21T07:07:48.297Z,34.33
2022-11-21T07:10:12.093Z,34.23
2022-11-21T07:12:55.233Z,34.33
2022-11-21T07:15:18.676Z,32.20
2022-11-21T07:17:42.147Z,34.00
2022-11-21T07:20:06.782Z,34.10
2022-11-21T07:22:30.069Z,31.23
2022-11-21T07:24:53.278Z,31.03
2022-11-21T07:27:16.585Z,33.47
2022-11-21T07:29:41.246Z,31.87
2022-11-21T07:32:04.563Z,34.43
2022-11-21T07:34:28.473Z,33.10
2022-11-21T07:36:51.754Z,35.43
2022-11-21T07:39:25.643Z,34.67
2022-11-21T07:41:49.519Z,40.10
2022-11-21T07:44:12.803Z,39.97
2022-11-21T07:46:37.485Z,37.77
2022-11-21T07:49:03.496Z,43.20
2022-11-21T07:51:27.191Z,44.10
2022-11-21T07:53:50.553Z,44.90
2022-11-21T07:56:13.907Z,42.27
2022-11-21T07:58:37.663Z,39.13
2022-11-21T08:01:05.236Z,36.53
2022-11-21T08:03:29.947Z,33.23
2022-11-21T08:05:53.275Z,37.23
2022-11-21T08:08:17.280Z,35.63
2022-11-21T08:10:42.866Z,36.83
2022-11-21T08:13:06.179Z,37.30
2022-11-21T08:15:29.532Z,39.37
2022-11-21T08:17:52.860Z,37.20
2022-11-21T08:20:17.717Z,41.37
2022-11-21T08:22:41.227Z,42.17
2022-11-21T08:25:05.029Z,36.25
2022-11-21T08:27:29.795Z,39.80
2022-11-21T08:29:53.094Z,39.73
2022-11-21T08:32:16.751Z,40.33
2022-11-21T08:34:40.094Z,38.70
2022-11-21T08:37:07.671Z,38.17
2022-11-21T08:39:31.445Z,38.23
2022-11-21T08:42:06.652Z,35.08
2022-11-21T08:44:30.716Z,31.55
2022-11-21T08:46:54.056Z,32.97
2022-11-21T08:49:17.295Z,33.85
2022-11-21T08:51:40.947Z,32.70
2022-11-21T08:54:05.847Z,30.13
2022-11-21T08:56:29.605Z,31.40
2022-11-21T08:58:53.050Z,30.50
2022-11-21T09:01:16.312Z,28.67
2022-11-21T09:03:39.630Z,28.47
2022-11-21T09:06:02.859Z,28.93
2022-11-21T09:08:26.302Z,28.10
2022-11-21T09:10:50.971Z,26.48
2022-11-21T09:13:14.265Z,27.23
2022-11-21T09:15:55.269Z,24.52
2022-11-21T09:18:18.684Z,22.25
2022-11-21T09:20:44.601Z,21.38
2022-11-21T09:23:09.483Z,21.45
2022-11-21T09:25:32.795Z,21.70
2022-11-21T09:28:01.038Z,19.95
2022-11-21T09:30:24.414Z,19.03
2022-11-21T09:32:47.745Z,20.70
2022-11-21T09:35:11.314Z,19.50
2022-11-21T09:37:38.315Z,17.80
2022-11-21T09:40:01.640Z,17.65
2022-11-21T09:42:51.593Z,18.60
2022-11-21T09:45:20.962Z,17.83
2022-11-21T09:47:48.052Z,17.90
2022-11-21T09:50:27.453Z,18.23
2022-11-21T09:52:57.120Z,18.33
2022-11-21T09:55:29.460Z,18.63
2022-11-21T09:57:52.752Z,19.40
2022-11-21T10:00:23.540Z,17.70
2022-11-21T10:02:47.088Z,17.87
2022-11-21T10:05:15.669Z,17.40
2022-11-21T10:07:39.532Z,18.07
2022-11-21T10:10:22.348Z,18.23
2022-11-21T10:13:01.450Z,16.30
2022-11-21T10:15:49.346Z,16.63
2022-11-21T10:18:36.711Z,15.00
2022-11-21T10:21:13.946Z,15.43
2022-11-21T10:24:04.379Z,14.93
2022-11-21T10:26:37.814Z,14.38
2022-11-21T10:29:07.737Z,12.32
2022-11-21T10:31:39.139Z,10.70
2022-11-21T10:34:05.076Z,11.60
2022-11-21T10:36:33.257Z,10.25
2022-11-21T10:39:02.353Z,10.57
2022-11-21T10:41:38.807Z,10.93
2022-11-21T10:44:31.643Z,10.93
2022-11-21T10:47:00.611Z,11.15
2022-11-21T10:49:24.580Z,10.45
2022-11-21T10:51:57.530Z,12.20
2022-11-21T10:54:36.535Z,11.38
2022-11-21T10:57:07.171Z,10.57
2022-11-21T10:59:31.891Z,9.97
2022-11-21T11:02:02.590Z,10.13
2022-11-21T11:04:28.997Z,10.30
2022-11-21T11:06:53.035Z,8.95
2022-11-21T11:09:32.121Z,9.27
2022-11-21T11:12:45.180Z,7.60
2022-11-21T11:15:19.887Z,8.00
2022-11-21T11:17:44.864Z,8.00
2022-11-21T11:20:33.436Z,7.68
2022-11-21T11:22:56.772Z,7.63
2022-11-21T11:25:20.016Z,7.10
2022-11-21T11:27:43.294Z,7.45
2022-11-21T11:30:09.478Z,6.75
2022-11-21T11:32:32.950Z,7.70
2022-11-21T11:35:02.937Z,6.03
2022-11-21T11:37:40.356Z,7.60
2022-11-21T11:40:18.902Z,6.95
2022-11-21T11:43:26.954Z,6.53
2022-11-21T11:46:22.286Z,6.32
2022-11-21T11:49:11.418Z,6.07
2022-11-21T11:51:38.584Z,6.28
2022-11-21T11:54:09.343Z,5.80
2022-11-21T11:56:37.114Z,5.70
2022-11-21T11:59:06.709Z,5.95
2022-11-21T12:01:37.426Z,5.40
2022-11-21T12:04:04.864Z,5.65
2022-11-21T12:07:10.733Z,4.43
2022-11-21T12:09:28.327Z,4.25
2022-11-21T12:12:08.207Z,4.28
2022-11-21T12:15:11.977Z,3.83
2022-11-21T12:17:43.107Z,3.80
2022-11-21T12:20:17.162Z,3.33
2022-11-21T12:22:42.104Z,3.70
2022-11-21T12:25:11.225Z,3.95
2022-11-21T12:27:35.324Z,3.42
2022-11-21T12:30:47.386Z,2.80
2022-11-21T12:33:21.320Z,2.97
2022-11-21T12:36:18.344Z,2.63
2022-11-21T12:39:15.538Z,3.30
2022-11-21T12:42:04.366Z,2.70
2022-11-21T12:44:44.977Z,2.22
2022-11-21T12:47:25.979Z,2.50
2022-11-21T12:50:29.259Z,3.22
2022-11-21T12:53:17.724Z,2.53
2022-11-21T12:55:43.559Z,2.60
2022-11-21T12:58:27.440Z,3.05
2022-11-21T13:01:21.571Z,3.45
2022-11-21T13:03:53.729Z,3.97
2022-11-21T13:06:23.787Z,3.78
2022-11-21T13:08:49.623Z,4.22
2022-11-21T13:11:44.685Z,4.07
2022-11-21T13:14:19.307Z,4.18
2022-11-21T13:16:48.545Z,4.15
2022-11-21T13:19:24.545Z,3.75
2022-11-21T13:21:50.013Z,3.40
2022-11-21T13:24:51.157Z,2.97
2022-11-21T13:27:36.487Z,2.90
2022-11-21T13:30:26.420Z,3.35
2022-11-21T13:32:51.864Z,2.67
2022-11-21T13:36:00.268Z,2.38
2022-11-21T13:38:23.647Z,2.88
2022-11-21T13:41:00.769Z,2.45
2022-11-21T13:43:33.823Z,2.60
2022-11-21T13:45:59.343Z,2.45
2022-11-21T13:48:42.535Z,2.90
2022-11-21T13:51:37.818Z,2.60
2022-11-21T13:54:56.437Z,2.33
2022-11-21T13:57:49.893Z,2.70
2022-11-21T14:00:35.990Z,2.25
2022-11-21T14:03:43.794Z,2.30
2022-11-21T14:06:37.640Z,1.90
2022-11-21T14:09:20.253Z,2.30
2022-11-21T14:11:49.963Z,1.83
2022-11-21T14:14:14.243Z,1.73
2022-11-21T14:16:47.240Z,2.08
2022-11-21T14:19:15.285Z,1.55
2022-11-21T14:21:38.685Z,1.70
2022-11-21T14:24:14.717Z,2.25
2022-11-21T14:26:43.810Z,1.70
2022-11-21T14:29:22.644Z,1.48
2022-11-21T14:31:48.984Z,1.40
2022-11-21T14:34:12.329Z,1.30
2022-11-21T14:36:35.699Z,1.70
2022-11-21T14:39:37.373Z,1.50
2022-11-21T14:41:49.813Z,1.80
2022-11-21T14:44:20.068Z,1.80
2022-11-21T14:46:44.467Z,1.52
2022-11-21T14:49:30.294Z,1.60
2022-11-21T14:52:03.985Z,1.60
2022-11-21T14:54:31.829Z,1.80
2022-11-21T14:57:01.106Z,1.83
2022-11-21T14:59:27.719Z,1.80
2022-11-21T15:02:00.816Z,1.95
2022-11-21T15:04:32.694Z,2.20
2022-11-21T15:06:56.097Z,2.13
2022-11-21T15:12:07.843Z,2.03
2022-11-21T15:14:36.509Z,1.73
2022-11-21T15:17:04.022Z,1.90
2022-11-21T15:19:30.159Z,2.00
2022-11-21T15:21:57.490Z,1.45
2022-11-21T15:24:32.886Z,1.88
2022-11-21T15:26:56.249Z,2.10
2022-11-21T15:29:22.153Z,2.60
2022-11-21T15:31:46.280Z,2.80
2022-11-21T15:37:08.347Z,2.20
2022-11-21T15:39:32.106Z,3.25
2022-11-21T15:41:55.364Z,3.40
2022-11-21T15:44:25.255Z,3.10
2022-11-21T15:46:53.168Z,2.40
2022-11-21T15:49:32.586Z,2.67
2022-11-21T15:52:07.712Z,2.70
2022-11-21T15:54:34.100Z,2.03
2022-11-21T15:56:57.395Z,1.83
2022-11-21T15:59:21.391Z,2.25
2022-11-21T16:01:44.751Z,2.15
2022-11-21T16:04:10.829Z,1.80
2022-11-21T16:06:34.834Z,2.25
2022-11-21T16:08:58.591Z,1.67
2022-11-21T16:11:25.928Z,1.67
2022-11-21T16:13:58.664Z,1.83
2022-11-21T16:16:25.343Z,2.15
2022-11-21T16:18:49.225Z,2.00
2022-11-21T16:21:13.030Z,1.92
2022-11-21T16:23:36.712Z,1.88
2022-11-21T16:26:00.091Z,2.15
2022-11-21T16:28:25.006Z,2.30
2022-11-21T16:30:48.360Z,2.05
2022-11-21T16:33:11.702Z,2.08
2022-11-21T16:35:35.013Z,1.60
2022-11-21T16:37:58.287Z,2.05
2022-11-21T16:40:21.940Z,1.90
2022-11-21T16:42:45.287Z,2.15
2022-11-21T16:45:11.485Z,2.17
2022-11-21T16:47:38.114Z,1.95
2022-11-21T16:50:01.390Z,1.95
2022-11-21T16:52:24.683Z,1.90
2022-11-21T16:54:48.039Z,1.90
2022-11-21T16:57:11.398Z,2.03
2022-11-21T16:59:34.696Z,2.20
2022-11-21T17:01:59.436Z,1.90
2022-11-21T17:04:22.741Z,1.90
2022-11-21T17:06:48.826Z,2.00
2022-11-21T17:09:12.618Z,1.90
2022-11-21T17:11:36.022Z,2.30
2022-11-21T17:14:02.523Z,2.22
2022-11-21T17:16:26.082Z,2.00
2022-11-21T17:18:54.888Z,2.15
2022-11-21T17:21:18.320Z,2.55
2022-11-21T17:23:44.285Z,2.65
2022-11-21T17:26:09.805Z,2.35
2022-11-21T17:28:33.967Z,2.80
2022-11-21T17:30:57.286Z,1.98
2022-11-21T17:33:21.808Z,2.53
2022-11-21T17:35:47.010Z,2.17
2022-11-21T17:38:10.355Z,2.30
2022-11-21T17:40:34.147Z,2.78
2022-11-21T17:42:57.624Z,2.63
2022-11-21T17:45:21.017Z,2.50
2022-11-21T17:47:47.036Z,2.40
2022-11-21T17:50:10.775Z,2.70
2022-11-21T17:52:35.588Z,2.33
2022-11-21T17:54:59.045Z,3.17
2022-11-21T17:57:22.319Z,2.17
2022-11-21T17:59:47.105Z,2.45
2022-11-21T18:02:10.895Z,2.40
2022-11-21T18:04:38.838Z,2.58
2022-11-21T18:07:02.828Z,3.03
2022-11-21T18:09:28.410Z,2.60
2022-11-21T18:11:52.286Z,2.30
2022-11-21T18:14:16.228Z,3.10
2022-11-21T18:16:42.731Z,2.83
2022-11-21T18:19:13.904Z,2.95
2022-11-21T18:21:37.439Z,2.75
2022-11-21T18:24:01.029Z,2.78
2022-11-21T18:26:28.597Z,2.83
2022-11-21T18:29:13.084Z,2.83
2022-11-21T18:31:37.673Z,3.22
2022-11-21T18:34:03.327Z,2.60
2022-11-21T18:36:28.652Z,2.65
2022-11-21T18:38:58.449Z,3.20
2022-11-21T18:41:29.199Z,2.70
2022-11-21T18:43:54.548Z,2.97
2022-11-21T18:46:18.314Z,2.72
2022-11-21T18:49:01.599Z,2.60
2022-11-21T18:51:28.802Z,2.85
2022-11-21T18:53:53.224Z,2.65
2022-11-21T18:56:17.297Z,3.15
2022-11-21T18:58:43.855Z,2.90
2022-11-21T19:01:09.235Z,2.63
2022-11-21T19:03:33.529Z,2.67
2022-11-21T19:05:56.855Z,3.30
2022-11-21T19:08:20.184Z,2.38
2022-11-21T19:10:43.936Z,2.75
2022-11-21T19:13:07.505Z,2.85
2022-11-21T19:15:32.207Z,2.53
2022-11-21T19:17:55.615Z,2.80
2022-11-21T19:20:19.033Z,2.95
2022-11-21T19:22:42.263Z,2.92
2022-11-21T19:25:06.280Z,2.83
2022-11-21T19:27:29.678Z,3.10
2022-11-21T19:29:55.387Z,2.95
2022-11-21T19:32:20.005Z,2.78
2022-11-21T19:34:43.516Z,2.60
2022-11-21T19:37:06.975Z,2.95
2022-11-21T19:39:31.594Z,2.85
2022-11-21T19:41:55.283Z,2.75
2022-11-21T19:44:18.856Z,2.75
2022-11-21T19:46:42.560Z,3.03
2022-11-21T19:49:08.500Z,3.97
2022-11-21T19:51:34.685Z,3.00
2022-11-21T19:53:58.001Z,2.88
2022-11-21T19:56:23.565Z,2.97
2022-11-21T19:58:47.896Z,3.00
2022-11-21T20:01:13.585Z,3.38
2022-11-21T20:03:37.689Z,2.92
2022-11-21T20:06:05.415Z,2.90
2022-11-21T20:08:28.799Z,2.70
2022-11-21T20:10:52.218Z,2.83
2022-11-21T20:13:15.570Z,3.50
2022-11-21T20:15:39.750Z,3.42
2022-11-21T20:18:03.012Z,3.17
2022-11-21T20:20:26.290Z,2.92
2022-11-21T20:22:51.010Z,3.42
2022-11-21T20:25:14.351Z,3.13
2022-11-21T20:27:37.975Z,3.40
2022-11-21T20:30:01.217Z,3.28
2022-11-21T20:32:25.450Z,3.40
2022-11-21T20:34:48.714Z,2.92
2022-11-21T20:37:11.934Z,3.30
2022-11-21T20:39:36.594Z,3.72
2022-11-21T20:42:00.405Z,3.15
2022-11-21T20:47:08.371Z,3.22
2022-11-21T20:49:31.964Z,2.80
2022-11-21T20:54:40.141Z,3.17
2022-11-21T20:57:03.422Z,3.58
2022-11-21T20:59:27.557Z,2.97
2022-11-21T21:01:51.255Z,2.95
2022-11-21T21:04:22.873Z,3.10
2022-11-21T21:06:46.156Z,2.92
2022-11-21T21:09:09.408Z,3.25
2022-11-21T21:14:17.343Z,3.50
2022-11-21T21:16:40.768Z,3.38
2022-11-21T21:19:07.548Z,3.40
2022-11-21T21:21:32.997Z,3.42
2022-11-21T21:23:58.818Z,3.00
2022-11-21T21:26:24.769Z,3.40
2022-11-21T21:28:49.966Z,4.72
2022-11-21T21:31:16.378Z,3.10
2022-11-21T21:33:40.406Z,3.22
2022-11-21T21:36:09.488Z,2.90
2022-11-21T21:38:32.804Z,3.20
2022-11-21T21:40:56.394Z,3.78
2022-11-21T21:43:19.679Z,4.00
2022-11-21T21:45:44.253Z,3.22
2022-11-21T21:48:07.972Z,3.50
2022-11-21T21:50:31.219Z,2.85
2022-11-21T21:52:54.684Z,3.65
2022-11-21T21:55:17.992Z,3.58
2022-11-21T21:57:46.013Z,3.60
2022-11-21T22:00:13.697Z,3.63
2022-11-21T22:02:40.523Z,3.20
2022-11-21T22:05:04.190Z,3.22
2022-11-21T22:07:27.487Z,3.08
2022-11-21T22:09:50.900Z,3.00
2022-11-21T22:12:14.236Z,3.40
2022-11-21T22:14:37.665Z,3.53
2022-11-21T22:17:00.926Z,3.63
2022-11-21T22:19:25.556Z,3.20
2022-11-21T22:21:48.843Z,3.20
2022-11-21T22:24:25.436Z,3.03
2022-11-21T22:26:49.543Z,3.85
2022-11-21T22:29:12.753Z,3.60
2022-11-21T22:31:37.406Z,3.53
2022-11-21T22:34:00.922Z,3.22
2022-11-21T22:36:25.551Z,3.05
2022-11-21T22:38:48.899Z,3.08
2022-11-21T22:41:16.547Z,3.70
2022-11-21T22:43:40.345Z,3.35
2022-11-21T22:46:04.528Z,4.03
2022-11-21T22:48:28.137Z,3.30
2022-11-21T22:50:51.589Z,3.25
2022-11-21T22:53:16.211Z,2.88
2022-11-21T22:55:39.430Z,3.67
2022-11-21T22:58:02.726Z,3.47
2022-11-21T23:00:26.361Z,3.22
2022-11-21T23:02:49.622Z,3.10
2022-11-21T23:05:12.885Z,3.10
2022-11-21T23:07:36.215Z,3.17
2022-11-21T23:10:00.959Z,3.28
2022-11-21T23:12:24.877Z,2.72
2022-11-21T23:14:48.272Z,3.38
2022-11-21T23:17:11.510Z,2.80
2022-11-21T23:19:34.792Z,3.50
2022-11-21T23:21:58.032Z,2.60
2022-11-21T23:24:21.404Z,2.77
2022-11-21T23:26:46.048Z,2.75
2022-11-21T23:29:09.376Z,2.80
2022-11-21T23:31:33.556Z,3.30
2022-11-21T23:33:56.910Z,3.30
2022-11-21T23:36:20.186Z,3.17
2022-11-21T23:38:43.473Z,3.10
2022-11-21T23:41:06.759Z,3.30
2022-11-21T23:43:31.456Z,2.78
2022-11-21T23:45:55.535Z,2.75
2022-11-21T23:48:19.241Z,2.83
2022-11-21T23:50:42.555Z,3.55
2022-11-21T23:53:05.863Z,3.13
2022-11-21T23:55:29.388Z,2.90
2022-11-21T23:57:53.049Z,3.20
